createdAt,value
2018-05-14T00:00:45.786Z,126.93
2018-05-14T00:03:14.697Z,115.60
2018-05-14T00:05:44.095Z,120.73
2018-05-14T00:08:13.194Z,110.43
2018-05-14T00:10:42.350Z,118.10
2018-05-14T00:13:11.556Z,138.83
2018-05-14T00:15:41.335Z,125.67
2018-05-14T00:18:10.503Z,128.47
2018-05-14T00:20:39.662Z,150.90
2018-05-14T00:23:08.783Z,145.30
2018-05-14T00:25:37.878Z,151.53
2018-05-14T00:28:07.358Z,157.37
2018-05-14T00:30:37.134Z,139.63
2018-05-14T00:33:05.994Z,153.53
2018-05-14T00:35:36.438Z,162.10
2018-05-14T00:38:05.570Z,133.00
2018-05-14T00:40:34.558Z,134.83
2018-05-14T00:43:03.651Z,149.30
2018-05-14T00:45:32.821Z,137.30
2018-05-14T00:48:01.823Z,149.60
2018-05-14T00:50:32.039Z,153.70
2018-05-14T00:53:01.298Z,141.60
2018-05-14T00:55:30.470Z,160.07
2018-05-14T00:57:59.839Z,161.63
2018-05-14T01:00:29.553Z,124.63
2018-05-14T01:02:58.535Z,149.53
2018-05-14T01:05:27.785Z,134.70
2018-05-14T01:07:56.850Z,149.30
2018-05-14T01:10:25.928Z,177.00
2018-05-14T01:12:55.147Z,123.50
2018-05-14T01:15:24.860Z,135.03
2018-05-14T01:17:53.978Z,171.97
2018-05-14T01:20:23.349Z,139.53
2018-05-14T01:22:52.346Z,147.03
2018-05-14T01:25:21.371Z,149.00
2018-05-14T01:27:50.802Z,152.97
2018-05-14T01:30:19.847Z,123.40
2018-05-14T01:32:49.049Z,160.97
2018-05-14T01:35:19.154Z,164.87
2018-05-14T01:37:49.690Z,133.20
2018-05-14T01:40:18.769Z,142.10
2018-05-14T01:42:47.895Z,144.50
2018-05-14T01:45:16.970Z,140.37
2018-05-14T01:47:46.119Z,127.53
2018-05-14T01:50:15.186Z,138.47
2018-05-14T01:52:44.138Z,159.83
2018-05-14T01:55:13.546Z,138.80
2018-05-14T01:57:43.291Z,130.37
2018-05-14T02:00:13.102Z,150.70
2018-05-14T02:02:42.501Z,161.43
2018-05-14T02:05:12.447Z,139.83
2018-05-14T02:07:42.968Z,164.70
2018-05-14T02:10:11.991Z,130.97
2018-05-14T02:12:41.087Z,148.17
2018-05-14T02:15:10.487Z,150.97
2018-05-14T02:17:39.646Z,164.10
2018-05-14T02:20:09.300Z,171.07
2018-05-14T02:22:38.495Z,146.77
2018-05-14T02:25:07.543Z,163.77
2018-05-14T02:27:36.588Z,160.73
2018-05-14T02:30:06.165Z,154.93
2018-05-14T02:32:35.282Z,151.67
2018-05-14T02:35:04.435Z,183.90
2018-05-14T02:37:33.822Z,168.60
2018-05-14T02:40:04.285Z,153.80
2018-05-14T02:42:33.584Z,156.17
2018-05-14T02:45:03.805Z,169.90
2018-05-14T02:47:32.991Z,181.37
2018-05-14T02:50:02.072Z,163.07
2018-05-14T02:52:32.227Z,159.13
2018-05-14T02:55:02.088Z,160.93
2018-05-14T02:57:31.154Z,165.67
2018-05-14T03:00:01.267Z,137.40
2018-05-14T03:02:32.094Z,155.13
2018-05-14T03:05:01.530Z,151.27
2018-05-14T03:07:30.522Z,153.53
2018-05-14T03:09:59.513Z,124.00
2018-05-14T03:12:28.730Z,156.23
2018-05-14T03:14:57.682Z,150.50
2018-05-14T03:17:26.786Z,144.43
2018-05-14T03:19:57.030Z,142.00
2018-05-14T03:22:26.131Z,137.93
2018-05-14T03:24:55.221Z,127.70
2018-05-14T03:27:24.670Z,154.00
2018-05-14T03:29:53.629Z,136.70
2018-05-14T03:32:22.621Z,150.53
2018-05-14T03:34:51.862Z,131.40
2018-05-14T03:37:20.769Z,132.10
2018-05-14T03:39:49.709Z,150.70
2018-05-14T03:42:20.587Z,136.90
2018-05-14T03:44:50.355Z,126.67
2018-05-14T03:47:19.450Z,118.73
2018-05-14T03:49:48.829Z,125.07
2018-05-14T03:52:17.826Z,115.63
2018-05-14T03:54:46.863Z,119.07
2018-05-14T03:57:16.190Z,125.57
2018-05-14T03:59:57.493Z,117.53
2018-05-14T04:02:38.156Z,132.37
2018-05-14T04:05:17.703Z,114.30
2018-05-14T04:07:47.925Z,144.53
2018-05-14T04:10:17.234Z,122.37
2018-05-14T04:12:48.089Z,136.93
2018-05-14T04:15:17.209Z,152.07
2018-05-14T04:17:46.274Z,128.07
2018-05-14T04:20:15.615Z,132.67
2018-05-14T04:22:45.073Z,141.03
2018-05-14T04:25:14.262Z,132.53
2018-05-14T04:27:43.610Z,133.53
2018-05-14T04:30:12.764Z,138.33
2018-05-14T04:32:43.240Z,127.63
2018-05-14T04:35:12.523Z,141.13
2018-05-14T04:37:41.510Z,131.43
2018-05-14T04:40:10.604Z,118.00
2018-05-14T04:42:43.213Z,129.50
2018-05-14T04:45:12.362Z,128.90
2018-05-14T04:47:41.534Z,157.70
2018-05-14T04:50:10.774Z,119.40
2018-05-14T04:52:39.873Z,126.80
2018-05-14T04:55:08.767Z,141.70
2018-05-14T04:57:38.176Z,128.57
2018-05-14T05:00:08.074Z,128.67
2018-05-14T05:02:37.391Z,138.83
2018-05-14T05:05:07.370Z,134.23
2018-05-14T05:07:37.043Z,132.43
2018-05-14T05:10:06.147Z,131.93
2018-05-14T05:12:35.658Z,128.37
2018-05-14T05:15:04.655Z,118.10
2018-05-14T05:17:33.714Z,131.77
2018-05-14T05:20:04.615Z,123.53
2018-05-14T05:22:34.291Z,130.77
2018-05-14T05:25:03.387Z,116.43
2018-05-14T05:27:32.658Z,129.70
2018-05-14T05:30:01.661Z,114.87
2018-05-14T05:32:30.655Z,123.97
2018-05-14T05:35:00.767Z,167.83
2018-05-14T05:37:29.618Z,137.17
2018-05-14T05:39:58.754Z,126.50
2018-05-14T05:42:28.166Z,119.93
2018-05-14T05:44:59.726Z,159.87
2018-05-14T05:47:29.579Z,140.63
2018-05-14T05:49:58.526Z,136.33
2018-05-14T05:52:28.499Z,123.53
2018-05-14T05:54:58.282Z,134.77
2018-05-14T05:57:27.540Z,123.50
2018-05-14T05:59:56.742Z,131.20
2018-05-14T06:02:26.055Z,114.10
2018-05-14T06:04:55.155Z,118.43
2018-05-14T06:07:24.179Z,117.00
2018-05-14T06:09:53.798Z,119.10
2018-05-14T06:12:22.791Z,123.23
2018-05-14T06:14:51.778Z,102.33
2018-05-14T06:17:21.236Z,141.17
2018-05-14T06:19:50.231Z,125.93
2018-05-14T06:22:19.477Z,112.17
2018-05-14T06:24:48.674Z,95.17
2018-05-14T06:27:17.673Z,104.00
2018-05-14T06:29:46.766Z,105.33
2018-05-14T06:32:16.566Z,134.53
2018-05-14T06:34:45.538Z,123.30
2018-05-14T06:37:14.457Z,106.27
2018-05-14T06:39:43.682Z,101.97
2018-05-14T06:42:13.191Z,95.57
2018-05-14T06:44:42.303Z,90.13
2018-05-14T06:47:13.234Z,119.30
2018-05-14T06:49:42.280Z,102.17
2018-05-14T06:52:11.383Z,101.80
2018-05-14T06:54:41.835Z,94.33
2018-05-14T06:57:10.902Z,115.80
2018-05-14T06:59:40.904Z,80.80
2018-05-14T07:02:09.977Z,109.37
2018-05-14T07:04:39.110Z,101.87
2018-05-14T07:07:08.239Z,82.33
2018-05-14T07:09:37.515Z,82.40
2018-05-14T07:12:06.608Z,73.33
2018-05-14T07:14:36.824Z,95.70
2018-05-14T07:17:06.035Z,99.87
2018-05-14T07:19:36.035Z,89.20
2018-05-14T07:22:05.279Z,85.83
2018-05-14T07:24:34.374Z,80.53
2018-05-14T07:27:03.471Z,72.47
2018-05-14T07:29:32.567Z,101.40
2018-05-14T07:32:02.087Z,86.27
2018-05-14T07:34:31.083Z,87.90
2018-05-14T07:37:00.173Z,102.07
2018-05-14T07:39:29.750Z,79.33
2018-05-14T07:41:59.031Z,79.20
2018-05-14T07:44:28.202Z,97.73
2018-05-14T07:46:57.578Z,101.30
2018-05-14T07:49:27.863Z,80.17
2018-05-14T07:51:56.970Z,75.07
2018-05-14T07:54:26.930Z,97.33
2018-05-14T07:56:55.823Z,83.30
2018-05-14T07:59:24.827Z,79.93
2018-05-14T08:01:54.046Z,94.93
2018-05-14T08:04:23.011Z,78.63
2018-05-14T08:06:52.003Z,77.57
2018-05-14T08:09:21.145Z,80.20
2018-05-14T08:11:50.452Z,79.30
2018-05-14T08:14:19.338Z,77.87
2018-05-14T08:16:48.129Z,75.57
2018-05-14T08:19:16.919Z,82.03
2018-05-14T08:21:45.708Z,67.73
2018-05-14T08:24:14.601Z,89.53
2018-05-14T08:26:43.392Z,93.87
2018-05-14T08:29:11.877Z,73.70
2018-05-14T08:31:40.868Z,67.87
2018-05-14T08:34:09.556Z,62.43
2018-05-14T08:36:38.489Z,50.97
2018-05-14T08:39:07.999Z,51.57
2018-05-14T08:41:36.743Z,49.63
2018-05-14T08:44:05.431Z,50.57
2018-05-14T08:46:34.527Z,61.97
2018-05-14T08:49:03.114Z,48.60
2018-05-14T08:51:32.824Z,53.23
2018-05-14T08:54:02.228Z,45.33
2018-05-14T08:56:31.034Z,43.50
2018-05-14T08:58:59.706Z,35.73
2018-05-14T09:01:28.602Z,36.80
2018-05-14T09:03:57.387Z,37.57
2018-05-14T09:06:26.178Z,41.97
2018-05-14T09:08:55.171Z,86.80
2018-05-14T09:11:23.653Z,34.77
2018-05-14T09:13:52.238Z,29.13
2018-05-14T09:16:21.131Z,30.87
2018-05-14T09:18:49.719Z,25.13
2018-05-14T09:21:18.607Z,28.23
2018-05-14T09:23:47.601Z,46.10
2018-05-14T09:26:16.190Z,28.10
2018-05-14T09:28:44.873Z,24.37
2018-05-14T09:31:13.827Z,29.00
2018-05-14T09:33:42.453Z,25.60
2018-05-14T09:36:11.037Z,21.13
2018-05-14T09:38:40.448Z,21.33
2018-05-14T09:41:08.971Z,24.70
2018-05-14T09:43:38.533Z,18.50
2018-05-14T09:46:07.425Z,20.63
2018-05-14T09:48:36.054Z,29.90
2018-05-14T09:51:04.593Z,32.93
2018-05-14T09:53:35.066Z,27.50
2018-05-14T09:56:03.812Z,30.90
2018-05-14T09:58:32.397Z,35.73
2018-05-14T10:01:01.596Z,32.43
2018-05-14T10:03:30.240Z,38.27
2018-05-14T10:05:58.868Z,40.20
2018-05-14T10:08:27.922Z,35.80
2018-05-14T10:10:56.635Z,33.60
2018-05-14T10:13:26.160Z,44.77
2018-05-14T10:15:55.153Z,32.40
2018-05-14T10:18:24.557Z,27.93
2018-05-14T10:20:53.143Z,33.97
2018-05-14T10:23:22.342Z,26.47
2018-05-14T10:25:50.975Z,36.17
2018-05-14T10:28:19.658Z,47.83
2018-05-14T10:30:48.915Z,32.03
2018-05-14T10:33:17.500Z,21.83
2018-05-14T10:35:46.085Z,32.10
2018-05-14T10:38:15.079Z,30.37
2018-05-14T10:40:43.888Z,22.83
2018-05-14T10:43:12.659Z,19.17
2018-05-14T10:45:41.858Z,49.27
2018-05-14T10:48:10.443Z,24.47
2018-05-14T10:50:39.029Z,41.57
2018-05-14T10:53:07.851Z,43.93
2018-05-14T10:55:38.553Z,36.70
2018-05-14T10:58:07.243Z,34.50
2018-05-14T11:00:36.237Z,36.43
2018-05-14T11:03:05.028Z,27.30
2018-05-14T11:05:33.816Z,42.80
2018-05-14T11:08:03.014Z,42.30
2018-05-14T11:10:31.863Z,34.93
2018-05-14T11:13:00.593Z,29.90
2018-05-14T11:15:30.407Z,32.83
2018-05-14T11:17:59.359Z,38.57
2018-05-14T11:20:28.351Z,32.83
2018-05-14T11:22:57.478Z,35.20
2018-05-14T11:25:27.535Z,34.67
2018-05-14T11:27:57.634Z,30.27
2018-05-14T11:30:27.061Z,30.50
2018-05-14T11:32:57.029Z,31.93
2018-05-14T11:35:26.873Z,22.07
2018-05-14T11:37:56.831Z,34.00
2018-05-14T11:40:25.926Z,33.87
2018-05-14T11:42:55.023Z,37.60
2018-05-14T11:45:24.298Z,25.73
2018-05-14T11:47:54.167Z,28.03
2018-05-14T11:50:23.963Z,24.80
2018-05-14T11:52:52.491Z,25.63
2018-05-14T11:55:21.280Z,25.83
2018-05-14T11:57:51.709Z,33.47
2018-05-14T12:00:20.294Z,30.17
2018-05-14T12:02:49.154Z,24.73
2018-05-14T12:05:18.385Z,31.83
2018-05-14T12:07:46.970Z,28.90
2018-05-14T12:10:15.499Z,35.00
2018-05-14T12:12:44.391Z,30.47
2018-05-14T12:15:12.881Z,32.40
2018-05-14T12:17:41.616Z,35.10
2018-05-14T12:20:10.555Z,32.23
2018-05-14T12:22:39.197Z,28.77
2018-05-14T12:25:07.931Z,27.93
2018-05-14T12:27:36.674Z,31.60
2018-05-14T12:30:05.258Z,31.07
2018-05-14T12:32:33.945Z,33.70
2018-05-14T12:35:02.982Z,29.50
2018-05-14T12:37:31.733Z,25.43
2018-05-14T12:40:00.518Z,31.93
2018-05-14T12:42:29.971Z,22.63
2018-05-14T12:45:03.014Z,20.20
2018-05-14T12:47:33.959Z,26.60
2018-05-14T12:50:02.544Z,29.47
2018-05-14T12:52:31.123Z,29.33
2018-05-14T12:54:59.754Z,35.67
2018-05-14T12:57:28.300Z,26.13
2018-05-14T12:59:58.416Z,40.90
2018-05-14T13:02:27.454Z,30.13
2018-05-14T13:04:56.095Z,25.73
2018-05-14T13:07:24.827Z,36.23
2018-05-14T13:09:53.777Z,36.53
2018-05-14T13:12:22.363Z,44.77
2018-05-14T13:14:50.947Z,35.50
2018-05-14T13:17:19.737Z,32.70
2018-05-14T13:19:48.326Z,30.10
2018-05-14T13:22:16.850Z,30.93
2018-05-14T13:24:45.594Z,35.87
2018-05-14T13:27:14.388Z,29.40
2018-05-14T13:29:43.096Z,40.80
2018-05-14T13:32:12.131Z,37.83
2018-05-14T13:34:40.859Z,45.10
2018-05-14T13:37:09.543Z,33.63
2018-05-14T13:39:38.817Z,22.20
2018-05-14T13:42:08.352Z,45.53
2018-05-14T13:44:37.309Z,45.53
2018-05-14T13:47:06.079Z,50.17
2018-05-14T13:49:36.362Z,48.17
2018-05-14T13:52:06.790Z,41.80
2018-05-14T13:54:35.576Z,37.20
2018-05-14T13:57:04.161Z,40.93
2018-05-14T13:59:35.101Z,38.43
2018-05-14T14:02:05.125Z,35.47
2018-05-14T14:04:35.146Z,48.63
2018-05-14T14:07:04.850Z,43.73
2018-05-14T14:09:35.278Z,44.77
2018-05-14T14:12:04.375Z,40.07
2018-05-14T14:14:33.268Z,42.23
2018-05-14T14:17:03.269Z,41.40
2018-05-14T14:19:32.531Z,34.17
2018-05-14T14:22:03.659Z,38.53
2018-05-14T14:24:32.320Z,32.33
2018-05-14T14:27:01.005Z,41.10
2018-05-14T14:29:29.593Z,35.63
2018-05-14T14:31:58.380Z,33.33
2018-05-14T14:34:28.090Z,48.97
2018-05-14T14:36:56.675Z,39.33
2018-05-14T14:39:25.262Z,44.73
2018-05-14T14:41:54.254Z,39.37
2018-05-14T14:44:22.840Z,36.27
2018-05-14T14:46:51.630Z,31.63
2018-05-14T14:49:20.521Z,42.43
2018-05-14T14:51:49.312Z,41.27
2018-05-14T14:54:18.104Z,44.50
2018-05-14T14:56:47.710Z,32.90
2018-05-14T14:59:16.522Z,48.63
2018-05-14T15:01:46.006Z,39.03
2018-05-14T15:04:16.522Z,29.30
2018-05-14T15:06:46.043Z,39.60
2018-05-14T15:09:15.345Z,32.80
2018-05-14T15:11:44.237Z,33.90
2018-05-14T15:14:12.975Z,35.80
2018-05-14T15:16:41.611Z,40.20
2018-05-14T15:19:10.554Z,49.47
2018-05-14T15:21:39.190Z,49.70
2018-05-14T15:24:07.775Z,36.40
2018-05-14T15:26:36.872Z,37.90
2018-05-14T15:29:05.457Z,33.40
2018-05-14T15:31:34.759Z,38.93
2018-05-14T15:34:03.762Z,44.37
2018-05-14T15:36:32.591Z,35.73
2018-05-14T15:39:02.098Z,40.83
2018-05-14T15:41:31.146Z,44.70
2018-05-14T15:44:00.687Z,43.30
2018-05-14T15:46:29.442Z,41.47
2018-05-14T15:48:58.436Z,50.27
2018-05-14T15:51:27.124Z,37.43
2018-05-14T15:53:55.709Z,45.80
2018-05-14T15:56:24.461Z,50.63
2018-05-14T15:58:53.290Z,47.87
2018-05-14T16:01:22.797Z,53.00
2018-05-14T16:03:51.789Z,48.50
2018-05-14T16:06:21.808Z,45.07
2018-05-14T16:08:51.215Z,46.27
2018-05-14T16:11:20.411Z,39.13
2018-05-14T16:13:49.099Z,52.00
2018-05-14T16:16:17.580Z,38.40
2018-05-14T16:18:46.939Z,43.60
2018-05-14T16:21:15.673Z,38.33
2018-05-14T16:23:45.077Z,38.43
2018-05-14T16:26:13.968Z,49.70
2018-05-14T16:28:42.860Z,57.57
2018-05-14T16:31:11.445Z,44.70
2018-05-14T16:33:40.387Z,33.00
2018-05-14T16:36:09.128Z,38.93
2018-05-14T16:38:37.917Z,43.60
2018-05-14T16:41:07.017Z,39.67
2018-05-14T16:43:35.804Z,50.70
2018-05-14T16:46:04.608Z,42.97
2018-05-14T16:48:34.204Z,42.27
2018-05-14T16:51:02.663Z,41.80
2018-05-14T16:53:31.987Z,50.83
2018-05-14T16:56:01.084Z,45.67
2018-05-14T16:58:30.693Z,45.77
2018-05-14T17:00:59.380Z,47.90
2018-05-14T17:03:28.273Z,52.73
2018-05-14T17:05:56.856Z,57.07
2018-05-14T17:08:26.468Z,63.23
2018-05-14T17:10:55.563Z,61.00
2018-05-14T17:13:24.250Z,44.50
2018-05-14T17:15:53.041Z,48.57
2018-05-14T17:18:21.931Z,48.53
2018-05-14T17:20:51.234Z,57.20
2018-05-14T17:23:19.921Z,43.53
2018-05-14T17:25:48.995Z,39.93
2018-05-14T17:28:18.022Z,52.20
2018-05-14T17:30:46.926Z,55.23
2018-05-14T17:33:17.070Z,48.80
2018-05-14T17:35:46.312Z,41.80
2018-05-14T17:38:15.272Z,38.70
2018-05-14T17:40:46.031Z,44.87
2018-05-14T17:43:16.933Z,50.30
2018-05-14T17:45:47.098Z,47.43
2018-05-14T17:48:16.239Z,42.33
2018-05-14T17:50:45.782Z,42.03
2018-05-14T17:53:15.135Z,48.10
2018-05-14T17:55:44.037Z,40.07
2018-05-14T17:58:13.962Z,55.73
2018-05-14T18:00:43.357Z,43.43
2018-05-14T18:03:13.341Z,52.77
2018-05-14T18:05:43.074Z,53.77
2018-05-14T18:08:14.758Z,44.90
2018-05-14T18:10:45.132Z,44.87
2018-05-14T18:13:15.087Z,41.80
2018-05-14T18:15:45.066Z,57.60
2018-05-14T18:18:14.846Z,52.03
2018-05-14T18:20:43.953Z,60.43
2018-05-14T18:23:18.550Z,54.37
2018-05-14T18:25:53.878Z,65.40
2018-05-14T18:28:38.527Z,53.27
2018-05-14T18:31:15.577Z,63.13
2018-05-14T18:33:45.002Z,56.63
2018-05-14T18:36:13.966Z,66.63
2018-05-14T18:38:43.028Z,73.77
2018-05-14T18:41:13.070Z,57.60
2018-05-14T18:43:42.170Z,75.53
2018-05-14T18:46:11.246Z,66.13
2018-05-14T18:48:40.805Z,61.33
2018-05-14T18:51:09.726Z,68.30
2018-05-14T18:53:38.667Z,69.37
2018-05-14T18:56:07.887Z,63.57
2018-05-14T18:58:37.770Z,73.50
2018-05-14T19:01:06.667Z,67.57
2018-05-14T19:03:35.942Z,69.93
2018-05-14T19:06:06.016Z,58.90
2018-05-14T19:08:35.151Z,63.17
2018-05-14T19:11:11.593Z,71.30
2018-05-14T19:13:40.822Z,57.37
2018-05-14T19:16:16.357Z,76.90
2018-05-14T19:18:45.475Z,71.73
2018-05-14T19:21:14.570Z,65.40
2018-05-14T19:23:49.770Z,72.17
2018-05-14T19:26:19.501Z,68.57
2018-05-14T19:28:54.640Z,61.30
2018-05-14T19:31:24.578Z,68.87
2018-05-14T19:34:01.640Z,70.87
2018-05-14T19:36:30.737Z,61.33
2018-05-14T19:38:59.936Z,53.63
2018-05-14T19:41:29.216Z,59.67
2018-05-14T19:43:58.352Z,68.00
2018-05-14T19:46:27.447Z,90.10
2018-05-14T19:48:56.658Z,56.50
2018-05-14T19:51:25.751Z,63.20
2018-05-14T19:53:55.747Z,65.97
2018-05-14T19:56:25.754Z,76.57
2018-05-14T19:58:54.720Z,61.10
2018-05-14T20:01:23.710Z,71.47
2018-05-14T20:03:52.906Z,87.60
2018-05-14T20:06:21.902Z,71.77
2018-05-14T20:08:51.000Z,66.97
2018-05-14T20:11:21.942Z,67.60
2018-05-14T20:13:50.886Z,86.63
2018-05-14T20:16:19.770Z,68.43
2018-05-14T20:18:49.730Z,69.10
2018-05-14T20:21:18.827Z,71.30
2018-05-14T20:23:47.902Z,66.57
2018-05-14T20:26:17.914Z,70.60
2018-05-14T20:28:47.214Z,66.60
2018-05-14T20:31:16.272Z,69.33
2018-05-14T20:33:45.548Z,75.47
2018-05-14T20:36:15.058Z,63.93
2018-05-14T20:38:44.059Z,91.73
2018-05-14T20:41:14.070Z,84.13
2018-05-14T20:43:43.231Z,74.67
2018-05-14T20:46:12.326Z,63.17
2018-05-14T20:48:41.641Z,50.47
2018-05-14T20:51:10.631Z,79.37
2018-05-14T20:53:40.627Z,73.53
2018-05-14T20:56:10.462Z,79.47
2018-05-14T20:58:40.330Z,54.83
2018-05-14T21:01:09.248Z,60.23
2018-05-14T21:03:38.670Z,63.37
2018-05-14T21:06:07.796Z,57.93
2018-05-14T21:08:36.871Z,74.63
2018-05-14T21:11:06.275Z,57.83
2018-05-14T21:13:36.418Z,59.57
2018-05-14T21:16:05.590Z,54.73
2018-05-14T21:18:35.767Z,54.33
2018-05-14T21:21:04.907Z,63.23
2018-05-14T21:23:34.658Z,72.60
2018-05-14T21:26:03.787Z,65.37
2018-05-14T21:28:32.750Z,64.10
2018-05-14T21:31:01.743Z,57.30
2018-05-14T21:33:30.839Z,61.00
2018-05-14T21:35:59.902Z,66.33
2018-05-14T21:38:29.874Z,63.13
2018-05-14T21:40:59.228Z,65.00
2018-05-14T21:43:28.913Z,59.63
2018-05-14T21:45:58.215Z,66.80
2018-05-14T21:48:27.662Z,65.87
2018-05-14T21:50:56.762Z,69.07
2018-05-14T21:53:25.858Z,61.60
2018-05-14T21:55:55.139Z,51.80
2018-05-14T21:58:24.030Z,64.43
2018-05-14T22:00:53.924Z,63.33
2018-05-14T22:03:23.447Z,57.17
2018-05-14T22:05:54.422Z,63.17
2018-05-14T22:08:23.287Z,60.07
2018-05-14T22:10:52.722Z,58.53
2018-05-14T22:13:21.719Z,59.20
2018-05-14T22:15:52.314Z,67.13
2018-05-14T22:18:21.893Z,62.53
2018-05-14T22:20:51.178Z,50.13
2018-05-14T22:23:20.934Z,51.90
2018-05-14T22:25:51.370Z,54.03
2018-05-14T22:28:20.463Z,53.83
2018-05-14T22:30:50.375Z,56.27
2018-05-14T22:33:19.706Z,63.77
2018-05-14T22:35:48.787Z,56.20
2018-05-14T22:38:17.884Z,57.50
2018-05-14T22:40:47.210Z,63.87
2018-05-14T22:43:17.790Z,57.53
2018-05-14T22:45:46.803Z,59.23
2018-05-14T22:48:15.903Z,71.17
2018-05-14T22:50:45.873Z,59.07
2018-05-14T22:53:15.110Z,64.73
2018-05-14T22:55:44.107Z,68.63
2018-05-14T22:58:13.130Z,64.80
2018-05-14T23:00:42.438Z,65.73
2018-05-14T23:03:11.436Z,64.40
2018-05-14T23:05:40.526Z,59.70
2018-05-14T23:08:09.806Z,51.90
2018-05-14T23:10:39.774Z,55.30
2018-05-14T23:13:08.942Z,50.03
2018-05-14T23:15:38.214Z,50.43
2018-05-14T23:18:09.090Z,66.00
2018-05-14T23:20:38.223Z,45.33
2018-05-14T23:23:07.959Z,57.30
2018-05-14T23:25:37.058Z,67.80
2018-05-14T23:28:06.368Z,76.17
2018-05-14T23:30:36.338Z,58.30
2018-05-14T23:33:05.436Z,68.90
2018-05-14T23:35:35.576Z,71.50
2018-05-14T23:38:04.780Z,68.73
2018-05-14T23:40:33.878Z,60.57
2018-05-14T23:43:03.194Z,48.87
2018-05-14T23:45:32.399Z,49.23
2018-05-14T23:48:02.094Z,57.40
2018-05-14T23:50:32.335Z,62.33
2018-05-14T23:53:02.202Z,49.87
2018-05-14T23:55:31.415Z,78.00
2018-05-14T23:58:00.674Z,64.20
